Time;durP1;ratioP1;P1;durP2;ratioP2;P2;SDS_P1;SDS_P2;PMS_P1;PMS_P2;Temp;Humidity;BMP_temperature;BMP_pressure;BME280_temperature;BME280_humidity;BME280_pressure;Samples;Min_cycle;Max_cycle;Signal;HPM_P1;HPM_P2
2022/12/22 03:28:31;;;;;;;13.73;12.30;;;22.60;68.90;;;;;;6298838;27;88825;-64
2022/12/22 03:31:33;;;;;;;13.60;12.20;;;22.60;68.90;;;;;;6291282;27;87961;-64
2022/12/22 03:34:37;;;;;;;14.27;12.77;;;22.60;68.90;;;;;;6294184;27;89097;-64
2022/12/22 03:37:39;;;;;;;14.32;12.05;;;22.60;68.90;;;;;;6303443;27;89429;-64
2022/12/22 03:40:41;;;;;;;13.93;12.52;;;22.50;68.80;;;;;;6304127;27;89333;-65
2022/12/22 03:47:02;;;;;;;15.13;12.95;;;22.60;68.90;;;;;;6305625;27;88014;-65
2022/12/22 03:50:07;;;;;;;15.00;12.73;;;22.50;68.90;;;;;;6300035;27;88301;-65
2022/12/22 03:53:09;;;;;;;14.23;12.77;;;22.50;68.90;;;;;;6304200;27;88223;-65
2022/12/22 03:56:11;;;;;;;14.48;12.98;;;22.50;68.80;;;;;;6290571;27;89253;-64
2022/12/22 03:59:13;;;;;;;15.25;13.68;;;22.50;68.90;;;;;;6296711;27;90416;-64
2022/12/22 04:02:15;;;;;;;14.38;12.88;;;22.50;68.90;;;;;;6302335;27;89139;-65
2022/12/22 04:05:19;;;;;;;14.77;13.27;;;22.50;68.90;;;;;;6290842;27;89182;-64
2022/12/22 04:08:21;;;;;;;15.15;13.68;;;22.40;68.90;;;;;;6304103;27;89189;-65
2022/12/22 04:14:42;;;;;;;14.65;13.15;;;22.50;68.80;;;;;;6304092;27;87640;-64
2022/12/22 04:17:44;;;;;;;15.43;13.65;;;22.40;68.40;;;;;;6285241;27;89132;-64
2022/12/22 04:20:49;;;;;;;15.48;13.88;;;22.40;68.40;;;;;;6291813;27;88645;-65
2022/12/22 04:23:51;;;;;;;14.38;12.98;;;22.40;68.40;;;;;;6291439;27;89243;-64
2022/12/22 04:26:53;;;;;;;15.32;13.73;;;22.50;68.40;;;;;;6296481;27;89171;-64
2022/12/22 04:29:55;;;;;;;14.88;13.40;;;22.40;68.30;;;;;;6303160;27;89971;-64
2022/12/22 04:32:57;;;;;;;14.90;13.27;;;22.50;68.40;;;;;;6304339;27;89110;-64
2022/12/22 04:36:01;;;;;;;14.65;13.05;;;22.50;68.30;;;;;;6293594;27;87897;-64
2022/12/22 04:39:03;;;;;;;15.18;13.57;;;22.50;68.30;;;;;;6304166;27;89056;-64
2022/12/22 04:42:05;;;;;;;15.38;13.73;;;22.50;68.20;;;;;;6292151;27;89245;-64
2022/12/22 04:45:08;;;;;;;15.57;13.98;;;22.50;68.20;;;;;;6300868;27;89094;-64
2022/12/22 04:48:10;;;;;;;15.15;13.55;;;22.60;68.10;;;;;;6304176;27;89025;-64
2022/12/22 04:51:14;;;;;;;16.05;14.35;;;22.60;68.10;;;;;;6296850;27;88852;-64
2022/12/22 04:54:16;;;;;;;14.98;13.48;;;22.60;68.00;;;;;;6301937;27;89157;-64
2022/12/22 04:57:20;;;;;;;15.10;13.60;;;22.60;68.00;;;;;;6281093;27;89146;-65
2022/12/22 05:00:22;;;;;;;15.00;13.40;;;22.70;68.00;;;;;;6299387;27;90393;-64
2022/12/22 05:03:24;;;;;;;15.60;14.00;;;22.70;67.90;;;;;;6296267;27;87950;-64
2022/12/22 05:06:28;;;;;;;15.63;14.02;;;22.70;67.80;;;;;;6291557;27;88947;-64
2022/12/22 05:09:30;;;;;;;15.18;13.52;;;22.70;67.80;;;;;;6299145;27;89606;-64
2022/12/22 05:15:51;;;;;;;15.52;13.80;;;22.80;67.70;;;;;;6305081;27;89907;-64
2022/12/22 05:18:53;;;;;;;15.48;13.98;;;22.90;67.70;;;;;;6293991;27;89000;-65
2022/12/22 05:21:57;;;;;;;15.48;13.85;;;22.80;67.60;;;;;;6302521;27;88260;-65
2022/12/22 05:24:59;;;;;;;14.73;13.23;;;22.90;67.70;;;;;;6307617;27;89149;-64
2022/12/22 05:28:01;;;;;;;14.95;13.50;;;22.90;68.60;;;;;;6307932;27;89133;-64
2022/12/22 05:31:04;;;;;;;15.57;14.05;;;22.90;67.60;;;;;;6302622;27;90474;-64
2022/12/22 05:34:06;;;;;;;15.63;14.05;;;22.90;67.60;;;;;;6307368;27;89107;-65
2022/12/22 05:37:10;;;;;;;15.45;13.80;;;22.90;67.60;;;;;;6294196;27;89074;-64
2022/12/22 05:40:12;;;;;;;15.65;14.05;;;23.00;67.60;;;;;;6301359;27;89124;-65
2022/12/22 05:43:15;;;;;;;14.50;13.10;;;22.90;67.60;;;;;;6307771;27;89017;-64
2022/12/22 05:46:17;;;;;;;14.75;13.30;;;23.00;67.60;;;;;;6301448;27;89053;-64
2022/12/22 05:49:20;;;;;;;14.38;12.98;;;23.00;67.60;;;;;;6297666;27;87973;-65
2022/12/22 05:52:23;;;;;;;14.82;13.40;;;23.00;67.50;;;;;;6299752;27;88417;-64
2022/12/22 05:55:25;;;;;;;14.63;13.15;;;23.00;67.40;;;;;;6308020;27;89078;-64
2022/12/22 05:58:27;;;;;;;15.10;13.50;;;23.00;67.40;;;;;;6294830;27;87976;-65
2022/12/22 06:01:30;;;;;;;14.75;13.25;;;23.00;67.40;;;;;;6295867;27;90328;-64
2022/12/22 06:04:32;;;;;;;14.25;12.82;;;23.00;67.40;;;;;;6283535;27;89086;-64
2022/12/22 06:07:35;;;;;;;14.05;12.73;;;23.00;67.40;;;;;;6295581;27;89291;-64
2022/12/22 06:10:37;;;;;;;14.18;12.77;;;23.10;67.40;;;;;;6296098;27;89121;-65
2022/12/22 06:13:39;;;;;;;14.82;13.23;;;23.10;67.40;;;;;;6295683;27;89059;-65
2022/12/22 06:16:41;;;;;;;14.43;13.02;;;23.10;67.40;;;;;;6296099;27;89122;-64
2022/12/22 06:19:43;;;;;;;14.68;13.18;;;23.00;67.40;;;;;;6283742;27;89551;-64
2022/12/22 06:22:47;;;;;;;14.90;13.30;;;23.10;67.40;;;;;;6293613;27;88574;-64
2022/12/22 06:25:54;;;;;;;14.93;13.43;;;23.10;67.40;;;;;;6304099;27;89418;-65
2022/12/22 06:28:56;;;;;;;14.48;13.05;;;23.10;67.40;;;;;;6304912;27;89431;-64
2022/12/22 06:31:58;;;;;;;14.50;12.90;;;23.10;67.50;;;;;;6301625;27;90053;-64
2022/12/22 06:35:00;;;;;;;14.25;12.80;;;23.10;67.50;;;;;;6305644;27;88853;-64
2022/12/22 06:38:04;;;;;;;14.10;12.70;;;23.10;67.50;;;;;;6303680;27;89085;-64
2022/12/22 06:41:06;;;;;;;13.60;12.20;;;23.20;67.60;;;;;;6303616;27;88970;-65
2022/12/22 06:44:07;;;;;;;13.55;12.15;;;23.10;67.60;;;;;;6303681;27;89184;-65
2022/12/22 06:47:09;;;;;;;13.15;11.85;;;23.10;67.60;;;;;;6300461;27;89205;-65
2022/12/22 06:50:11;;;;;;;13.85;12.40;;;23.10;68.60;;;;;;6305630;27;89406;-64
2022/12/22 06:53:15;;;;;;;13.30;11.90;;;23.20;67.60;;;;;;6302726;27;88321;-64
2022/12/22 06:56:17;;;;;;;14.02;12.63;;;23.20;67.70;;;;;;6303882;27;89313;-65
2022/12/22 06:59:19;;;;;;;13.35;11.95;;;23.20;67.60;;;;;;6303846;27;89102;-64
2022/12/22 07:02:21;;;;;;;13.52;12.13;;;23.20;67.70;;;;;;6295978;27;90315;-64
2022/12/22 07:05:24;;;;;;;13.50;12.07;;;23.20;67.70;;;;;;6306407;27;89345;-65
2022/12/22 07:08:27;;;;;;;13.18;11.82;;;23.20;67.60;;;;;;6293567;27;89064;-63
2022/12/22 07:11:29;;;;;;;14.32;12.40;;;23.20;67.60;;;;;;6297395;27;89144;-64
2022/12/22 07:14:31;;;;;;;14.52;12.13;;;23.30;67.70;;;;;;6299238;27;89093;-63
2022/12/22 07:17:34;;;;;;;15.45;12.48;;;23.30;67.70;;;;;;6305635;27;89514;-63
2022/12/22 07:20:36;;;;;;;13.40;12.00;;;23.30;67.70;;;;;;6295703;27;89087;-63
2022/12/22 07:23:40;;;;;;;13.38;11.98;;;23.30;67.70;;;;;;6285841;27;88445;-63
2022/12/22 07:26:42;;;;;;;13.52;12.13;;;23.30;68.60;;;;;;6295663;27;89039;-64
2022/12/22 07:29:44;;;;;;;13.98;11.80;;;23.30;67.70;;;;;;6300847;27;89366;-63
2022/12/22 07:32:46;;;;;;;13.70;12.02;;;23.30;68.60;;;;;;6298423;27;90054;-64
2022/12/22 07:35:48;;;;;;;12.85;11.52;;;23.30;67.70;;;;;;6306076;27;89031;-63
2022/12/22 07:38:52;;;;;;;13.90;11.75;;;23.30;67.60;;;;;;6293894;27;89064;-63
2022/12/22 07:45:15;;;;;;;13.10;11.73;;;23.40;67.70;;;;;;6304455;27;87248;-64
2022/12/22 07:51:39;;;;;;;12.43;11.13;;;23.30;67.60;;;;;;6304670;27;87067;-64
2022/12/22 07:54:43;;;;;;;12.02;10.82;;;23.40;67.70;;;;;;6294954;27;88174;-63
2022/12/22 07:57:45;;;;;;;12.40;11.10;;;23.40;67.70;;;;;;6305593;27;89091;-64
2022/12/22 08:00:47;;;;;;;12.70;11.40;;;23.40;67.70;;;;;;6291443;27;89166;-63
2022/12/22 08:03:49;;;;;;;12.55;11.25;;;23.40;67.70;;;;;;6303798;27;90322;-64
2022/12/22 08:06:51;;;;;;;11.88;10.40;;;23.40;67.70;;;;;;6302629;27;89038;-63
2022/12/22 08:09:55;;;;;;;15.68;11.00;;;23.40;67.70;;;;;;6291459;27;89283;-64
2022/12/22 08:12:57;;;;;;;12.02;10.82;;;23.40;67.70;;;;;;6290621;27;88362;-63
2022/12/22 08:16:03;;;;;;;12.30;11.00;;;23.40;67.70;;;;;;6303521;27;89162;-63
2022/12/22 08:19:06;;;;;;;12.15;10.77;;;23.40;67.70;;;;;;6304947;27;87986;-64
2022/12/22 08:22:08;;;;;;;12.30;11.10;;;23.50;67.70;;;;;;6287051;27;89400;-63
2022/12/22 08:25:11;;;;;;;11.90;10.57;;;23.40;67.70;;;;;;6292040;27;90420;-64
2022/12/22 08:28:14;;;;;;;11.55;10.35;;;23.40;67.70;;;;;;6292819;27;89159;-63
2022/12/22 08:31:16;;;;;;;11.93;10.73;;;23.50;67.70;;;;;;6300861;27;89184;-63
2022/12/22 08:34:19;;;;;;;11.32;10.10;;;23.50;67.70;;;;;;6291520;27;90072;-63
2022/12/22 08:37:25;;;;;;;11.68;10.40;;;23.50;68.60;;;;;;6304389;27;89029;-63
2022/12/22 08:40:31;;;;;;;12.10;10.80;;;23.40;67.60;;;;;;6300326;27;89893;-64
2022/12/22 08:43:33;;;;;;;11.40;10.00;;;23.50;67.70;;;;;;6297244;27;87988;-63
2022/12/22 08:46:35;;;;;;;11.85;10.48;;;23.50;67.70;;;;;;6308352;27;89352;-63
2022/12/22 08:49:37;;;;;;;10.88;9.77;;;23.50;67.70;;;;;;6304438;27;89133;-63
2022/12/22 08:52:39;;;;;;;11.35;10.15;;;23.50;67.70;;;;;;6309235;27;89144;-63
2022/12/22 08:55:51;;;;;;;17.48;14.10;;;23.50;67.70;;;;;;6295456;27;88351;-63
2022/12/22 08:58:54;;;;;;;12.95;11.30;;;23.50;67.90;;;;;;6298197;27;89047;-64
2022/12/22 09:01:56;;;;;;;13.10;11.57;;;23.50;68.10;;;;;;6309624;27;89092;-63
2022/12/22 09:04:58;;;;;;;12.05;10.70;;;23.50;68.10;;;;;;6297086;27;90451;-63
2022/12/22 09:08:01;;;;;;;11.88;10.23;;;23.50;68.00;;;;;;6297270;27;89256;-64
2022/12/22 09:11:05;;;;;;;11.35;10.20;;;23.50;67.90;;;;;;6303025;27;88960;-64
2022/12/22 09:14:08;;;;;;;11.77;10.57;;;23.50;68.00;;;;;;6302722;27;89633;-64
2022/12/22 09:17:10;;;;;;;11.48;10.30;;;23.50;67.90;;;;;;6297186;27;89101;-64
2022/12/22 09:20:13;;;;;;;12.18;10.80;;;23.50;67.90;;;;;;6287357;27;88945;-63
2022/12/22 09:23:15;;;;;;;11.85;10.65;;;23.50;68.00;;;;;;6297269;27;89001;-64
2022/12/22 09:26:21;;;;;;;10.90;9.80;;;23.50;68.00;;;;;;6288587;27;88384;-64
2022/12/22 09:29:23;;;;;;;11.10;10.00;;;23.50;68.10;;;;;;6303970;27;88965;-63
2022/12/22 09:32:25;;;;;;;11.18;10.00;;;23.40;68.10;;;;;;6291314;27;89034;-64
2022/12/22 09:35:27;;;;;;;10.77;9.68;;;23.40;68.10;;;;;;6306946;27;90091;-63
2022/12/22 09:38:29;;;;;;;10.85;9.75;;;23.40;68.10;;;;;;6297267;27;89059;-63
2022/12/22 09:41:36;;;;;;;10.73;9.65;;;23.40;68.20;;;;;;6305570;27;89448;-64
2022/12/22 09:44:43;;;;;;;10.38;9.38;;;23.40;68.20;;;;;;6297472;27;89118;-64
2022/12/22 09:47:52;;;;;;;10.35;9.35;;;23.40;68.20;;;;;;6307590;27;89133;-64
2022/12/22 09:50:54;;;;;;;10.70;9.60;;;23.40;68.20;;;;;;6307419;27;89123;-64
2022/12/22 09:53:59;;;;;;;9.82;8.82;;;23.40;68.30;;;;;;6308451;27;89159;-64
2022/12/22 09:57:02;;;;;;;10.13;9.13;;;23.40;68.30;;;;;;6301222;27;88413;-63
2022/12/22 10:00:13;;;;;;;10.45;9.45;;;23.40;68.30;;;;;;6295262;27;88673;-64
2022/12/22 10:03:27;;;;;;;9.88;8.88;;;23.40;68.30;;;;;;6297581;27;89175;-63
2022/12/22 10:06:35;;;;;;;10.05;9.05;;;23.40;68.30;;;;;;6305933;27;90056;-64
2022/12/22 10:09:37;;;;;;;10.18;9.15;;;23.50;68.40;;;;;;6308335;27;89129;-64
2022/12/22 10:12:41;;;;;;;10.05;8.68;;;23.50;68.40;;;;;;6307742;27;89098;-64
2022/12/22 10:15:43;;;;;;;9.55;8.60;;;23.50;68.40;;;;;;6295254;27;89163;-63
2022/12/22 10:18:56;;;;;;;9.98;8.98;;;23.50;68.40;;;;;;6294306;27;89392;-63
2022/12/22 10:22:19;;;;;;;9.07;8.00;;;23.50;68.40;;;;;;6298412;27;89169;-64
2022/12/22 10:25:31;;;;;;;9.13;8.23;;;23.50;68.40;;;;;;6302747;27;89029;-64
2022/12/22 10:28:38;;;;;;;9.07;8.18;;;23.60;68.50;;;;;;6305959;27;87215;-64
2022/12/22 10:31:58;;;;;;;9.55;8.55;;;23.60;68.40;;;;;;6307024;27;89126;-64
2022/12/22 10:35:02;;;;;;;8.75;7.93;;;23.60;68.40;;;;;;6301056;27;88913;-64
2022/12/22 10:38:15;;;;;;;9.00;8.10;;;23.60;68.40;;;;;;6305631;27;89851;-63
2022/12/22 10:41:20;;;;;;;9.13;7.78;;;23.60;68.40;;;;;;6307133;27;89039;-63
2022/12/22 10:44:28;;;;;;;8.50;7.70;;;23.60;68.40;;;;;;6308370;27;89052;-64
2022/12/22 10:47:30;;;;;;;8.68;7.80;;;23.60;68.40;;;;;;6304392;27;89026;-63
2022/12/22 10:50:32;;;;;;;8.98;8.07;;;23.60;68.40;;;;;;6308237;27;89210;-64
2022/12/22 10:53:44;;;;;;;8.25;7.45;;;23.60;68.50;;;;;;6302706;27;89231;-63
2022/12/22 10:56:59;;;;;;;8.75;7.85;;;23.60;68.80;;;;;;6296057;27;89073;-64
2022/12/22 11:00:23;;;;;;;8.75;7.85;;;23.70;68.90;;;;;;6307237;27;88243;-64
2022/12/22 11:03:30;;;;;;;8.85;7.95;;;23.60;69.10;;;;;;6307751;27;89136;-64
2022/12/22 11:06:32;;;;;;;7.97;7.18;;;23.60;69.30;;;;;;6282431;27;89574;-64
2022/12/22 11:09:34;;;;;;;8.40;7.60;;;23.60;69.50;;;;;;6288685;27;89975;-63
2022/12/22 11:12:45;;;;;;;8.38;7.57;;;23.60;69.60;;;;;;6306767;27;89143;-63
2022/12/22 11:15:56;;;;;;;7.45;6.75;;;23.60;69.90;;;;;;6300665;27;88590;-63
2022/12/22 11:19:09;;;;;;;7.80;7.10;;;23.60;70.00;;;;;;6302067;27;89316;-63
2022/12/22 11:22:23;;;;;;;8.27;7.47;;;23.60;70.10;;;;;;6296850;27;90123;-64
2022/12/22 11:25:37;;;;;;;8.35;7.53;;;23.60;70.30;;;;;;6294664;27;89056;-64
2022/12/22 11:28:54;;;;;;;8.40;7.00;;;23.60;70.30;;;;;;6305454;27;89052;-64
2022/12/22 11:32:12;;;;;;;7.65;6.85;;;23.60;70.50;;;;;;6307869;27;87417;-64
2022/12/22 11:35:22;;;;;;;7.25;6.57;;;23.60;70.50;;;;;;6306256;27;89251;-63
2022/12/22 11:38:44;;;;;;;7.53;6.82;;;23.60;70.70;;;;;;6307147;27;89098;-63
2022/12/22 11:42:00;;;;;;;7.57;6.88;;;23.60;70.80;;;;;;6306403;27;90018;-64
2022/12/22 11:45:16;;;;;;;6.97;6.28;;;23.60;70.80;;;;;;6298349;27;89112;-63
2022/12/22 11:48:50;;;;;;;7.63;6.72;;;23.60;71.00;;;;;;6302034;27;88248;-64
2022/12/22 11:52:06;;;;;;;7.57;6.75;;;23.60;71.00;;;;;;6298840;27;89336;-64
2022/12/22 11:55:22;;;;;;;6.97;6.28;;;23.60;71.00;;;;;;6296136;27;89197;-64
2022/12/22 11:58:48;;;;;;;6.78;6.18;;;23.60;71.10;;;;;;6304187;27;89404;-64
2022/12/22 12:02:21;;;;;;;7.20;6.50;;;23.60;71.10;;;;;;6307191;27;89085;-63
2022/12/22 12:05:49;;;;;;;7.40;6.65;;;23.70;71.30;;;;;;6294860;27;88559;-63
2022/12/22 12:09:18;;;;;;;7.88;6.90;;;23.60;71.20;;;;;;6292245;27;89091;-64
2022/12/22 12:12:26;;;;;;;6.47;5.88;;;23.60;71.30;;;;;;6282058;27;87998;-64
2022/12/22 12:15:32;;;;;;;6.57;5.97;;;23.70;71.40;;;;;;6284344;27;90426;-64
2022/12/22 12:18:58;;;;;;;6.82;6.15;;;23.70;71.40;;;;;;6303957;27;89393;-64
2022/12/22 12:22:05;;;;;;;6.63;5.95;;;23.60;71.30;;;;;;6292843;27;88948;-64
2022/12/22 12:25:23;;;;;;;7.53;6.72;;;23.60;71.30;;;;;;6306042;27;89084;-64
2022/12/22 12:28:38;;;;;;;6.63;5.93;;;23.60;71.40;;;;;;6305138;27;89398;-63
2022/12/22 12:31:43;;;;;;;6.45;5.65;;;23.60;71.30;;;;;;6306090;27;89983;-64
2022/12/22 12:34:54;;;;;;;6.90;6.00;;;23.70;71.50;;;;;;6305501;27;87942;-64
2022/12/22 12:38:06;;;;;;;6.20;5.60;;;23.60;71.40;;;;;;6304976;27;88309;-64
2022/12/22 12:41:18;;;;;;;6.57;5.85;;;23.70;71.50;;;;;;6282240;27;88817;-64
2022/12/22 12:44:25;;;;;;;6.78;6.07;;;23.60;71.40;;;;;;6305102;27;88102;-64
2022/12/22 12:47:29;;;;;;;6.32;5.72;;;23.70;71.50;;;;;;6303657;27;90209;-64
2022/12/22 12:50:33;;;;;;;6.15;5.55;;;23.60;71.40;;;;;;6281880;27;89103;-64
2022/12/22 12:54:12;;;;;;;6.10;5.50;;;23.70;71.30;;;;;;6304495;27;89430;-64
2022/12/22 12:57:28;;;;;;;6.25;5.65;;;23.70;71.30;;;;;;6279449;27;87969;-64
2022/12/22 13:00:47;;;;;;;6.60;5.80;;;23.70;71.30;;;;;;6304130;27;89156;-64
2022/12/22 13:03:49;;;;;;;6.90;6.00;;;23.70;71.30;;;;;;6303499;27;89076;-64
2022/12/22 13:06:53;;;;;;;6.53;5.40;;;23.70;71.30;;;;;;6304829;27;89054;-64
2022/12/22 13:10:19;;;;;;;5.72;5.22;;;23.70;71.40;;;;;;6293063;27;88305;-64
2022/12/22 13:13:47;;;;;;;6.15;5.55;;;23.70;71.30;;;;;;6280392;27;89171;-64
2022/12/22 13:16:49;;;;;;;6.78;5.57;;;23.70;71.30;;;;;;6305061;27;87829;-64
2022/12/22 13:19:51;;;;;;;5.38;4.88;;;23.70;71.30;;;;;;6301766;27;89934;-64
2022/12/22 13:22:56;;;;;;;5.38;4.88;;;23.70;71.30;;;;;;6297912;27;87877;-64
2022/12/22 13:26:02;;;;;;;5.75;5.18;;;23.70;71.30;;;;;;6291052;27;88093;-64
2022/12/22 13:29:14;;;;;;;5.45;4.95;;;23.70;71.30;;;;;;6306416;27;87971;-64
2022/12/22 13:32:25;;;;;;;5.35;4.80;;;23.70;71.30;;;;;;6309021;27;89051;-64
2022/12/22 13:35:34;;;;;;;5.70;5.20;;;23.70;71.30;;;;;;6307855;27;89373;-64
2022/12/22 13:38:37;;;;;;;5.20;4.70;;;23.70;71.30;;;;;;6307166;27;89005;-64
2022/12/22 13:41:43;;;;;;;5.50;5.00;;;23.70;71.30;;;;;;6305322;27;88331;-64
2022/12/22 13:44:46;;;;;;;5.30;4.70;;;23.70;72.20;;;;;;6307832;27;87976;-64
2022/12/22 13:47:49;;;;;;;5.55;4.95;;;23.70;71.10;;;;;;6306995;27;88996;-64
2022/12/22 13:50:54;;;;;;;5.03;4.53;;;23.70;71.10;;;;;;6307310;27;90087;-64
2022/12/22 13:53:58;;;;;;;4.80;4.40;;;23.70;71.10;;;;;;6308242;27;89092;-64
2022/12/22 13:57:04;;;;;;;4.95;4.53;;;23.70;71.10;;;;;;6308682;27;88122;-63
2022/12/22 14:00:16;;;;;;;5.18;4.68;;;23.70;71.10;;;;;;6307663;27;89098;-63
2022/12/22 14:03:19;;;;;;;4.88;4.38;;;23.70;71.10;;;;;;6307038;27;89012;-63
2022/12/22 14:06:27;;;;;;;4.70;4.30;;;23.60;71.10;;;;;;6294588;27;89023;-64
2022/12/22 14:09:29;;;;;;;4.80;4.40;;;23.60;71.10;;;;;;6307750;27;89050;-64
2022/12/22 14:12:39;;;;;;;4.65;4.25;;;23.60;71.10;;;;;;6295973;27;88333;-64
2022/12/22 14:15:42;;;;;;;4.63;4.22;;;23.60;71.10;;;;;;6307700;27;89061;-63
2022/12/22 14:18:45;;;;;;;4.60;4.20;;;23.60;71.10;;;;;;6307768;27;89280;-64
2022/12/22 14:21:54;;;;;;;4.53;4.13;;;23.60;71.10;;;;;;6296433;27;88806;-63
2022/12/22 14:25:00;;;;;;;4.32;3.92;;;23.60;71.10;;;;;;6294151;27;89108;-64
2022/12/22 14:28:06;;;;;;;4.65;4.25;;;23.60;72.00;;;;;;6307934;27;89093;-64
2022/12/22 14:31:12;;;;;;;4.35;3.95;;;23.60;71.10;;;;;;6307959;27;89005;-64
2022/12/22 14:34:25;;;;;;;4.57;4.18;;;23.60;71.10;;;;;;6308492;27;89483;-64
2022/12/22 14:37:27;;;;;;;4.32;3.92;;;23.60;71.10;;;;;;6294611;27;89105;-64
2022/12/22 14:40:32;;;;;;;4.68;4.13;;;23.60;71.20;;;;;;6301739;27;89087;-64
2022/12/22 14:43:35;;;;;;;4.05;3.70;;;23.60;71.10;;;;;;6300637;27;87223;-64
2022/12/22 14:46:38;;;;;;;4.30;3.90;;;23.60;71.10;;;;;;6308429;27;88794;-64
2022/12/22 14:49:45;;;;;;;4.90;4.32;;;23.60;71.10;;;;;;6294016;27;89072;-64
2022/12/22 14:52:50;;;;;;;4.28;3.88;;;23.60;71.10;;;;;;6307247;27;90122;-64
2022/12/22 14:55:53;;;;;;;4.45;4.05;;;23.60;71.10;;;;;;6297170;27;89051;-64
2022/12/22 14:59:10;;;;;;;4.22;3.83;;;23.60;71.10;;;;;;6292641;27;88210;-64
2022/12/22 15:02:24;;;;;;;4.28;3.88;;;23.60;71.20;;;;;;6306181;27;89096;-64
2022/12/22 15:05:28;;;;;;;3.97;3.60;;;23.60;71.10;;;;;;6306457;27;88966;-65
2022/12/22 15:08:37;;;;;;;3.78;3.40;;;23.60;71.10;;;;;;6307479;27;89090;-64
2022/12/22 15:11:42;;;;;;;3.72;3.40;;;23.60;71.20;;;;;;6295166;27;88214;-64
2022/12/22 15:14:47;;;;;;;3.80;3.47;;;23.50;71.10;;;;;;6307611;27;88403;-64
2022/12/22 15:17:52;;;;;;;3.67;3.38;;;23.50;71.10;;;;;;6306492;27;89197;-64
2022/12/22 15:20:55;;;;;;;3.72;3.33;;;23.50;71.10;;;;;;6301664;27;89020;-64
2022/12/22 15:23:57;;;;;;;3.83;3.45;;;23.50;71.10;;;;;;6287551;27;90069;-64
2022/12/22 15:26:59;;;;;;;3.88;3.58;;;23.50;71.10;;;;;;6307160;27;89107;-64
2022/12/22 15:30:03;;;;;;;4.00;3.60;;;23.50;71.20;;;;;;6295117;27;89126;-64
2022/12/22 15:33:12;;;;;;;4.10;3.65;;;23.50;71.30;;;;;;6292611;27;89170;-65
2022/12/22 15:36:14;;;;;;;3.70;3.40;;;23.40;71.30;;;;;;6306780;27;89193;-64
2022/12/22 15:39:18;;;;;;;3.80;3.47;;;23.40;71.30;;;;;;6305845;27;88969;-64
2022/12/22 15:42:21;;;;;;;3.70;3.40;;;23.40;71.30;;;;;;6306229;27;89054;-64
2022/12/22 15:45:24;;;;;;;3.72;3.38;;;23.40;71.40;;;;;;6300095;27;88373;-64
2022/12/22 15:48:28;;;;;;;3.63;3.33;;;23.30;71.40;;;;;;6299138;27;89132;-64
2022/12/22 15:51:32;;;;;;;3.85;3.40;;;23.30;71.40;;;;;;6305456;27;87794;-64
2022/12/22 15:54:35;;;;;;;3.60;3.30;;;23.30;71.50;;;;;;6303984;27;89221;-64
2022/12/22 15:57:37;;;;;;;3.50;3.20;;;23.30;71.50;;;;;;6302720;27;88787;-64
2022/12/22 16:00:41;;;;;;;3.10;2.80;;;23.30;71.60;;;;;;6305664;27;89128;-64
2022/12/22 16:03:43;;;;;;;3.50;3.20;;;23.30;71.60;;;;;;6292296;27;89169;-63
2022/12/22 16:06:45;;;;;;;3.38;3.00;;;23.30;71.60;;;;;;6305808;27;89029;-64
2022/12/22 16:09:48;;;;;;;3.55;3.25;;;23.20;71.60;;;;;;6306066;27;88796;-64
2022/12/22 16:12:58;;;;;;;3.30;3.00;;;23.20;71.50;;;;;;6301656;27;89012;-64
2022/12/22 16:16:02;;;;;;;3.60;3.30;;;23.20;71.60;;;;;;6297556;27;88242;-63
2022/12/22 16:19:04;;;;;;;3.53;3.22;;;23.20;71.60;;;;;;6303778;27;89047;-64
2022/12/22 16:22:08;;;;;;;3.40;3.10;;;23.20;71.60;;;;;;6293424;27;89203;-64
2022/12/22 16:25:14;;;;;;;3.28;2.97;;;23.20;71.50;;;;;;6306087;27;90207;-64
2022/12/22 16:28:19;;;;;;;3.50;3.20;;;23.20;71.60;;;;;;6306146;27;87968;-64
2022/12/22 16:31:24;;;;;;;3.45;3.15;;;23.20;71.50;;;;;;6296319;27;88982;-64
2022/12/22 16:34:26;;;;;;;3.33;3.03;;;23.20;71.60;;;;;;6297044;27;87858;-64
2022/12/22 16:37:29;;;;;;;3.10;2.80;;;23.20;71.50;;;;;;6304418;27;87989;-64
2022/12/22 16:40:32;;;;;;;3.00;2.78;;;23.30;71.50;;;;;;6304499;27;89516;-64
2022/12/22 16:43:37;;;;;;;3.30;3.00;;;23.30;71.50;;;;;;6305449;27;89065;-64
2022/12/22 16:46:41;;;;;;;3.00;2.70;;;23.30;71.30;;;;;;6301686;27;87280;-64
2022/12/22 16:49:44;;;;;;;3.55;2.97;;;23.30;71.30;;;;;;6289153;27;87939;-64
2022/12/22 16:52:48;;;;;;;3.60;2.92;;;23.30;71.20;;;;;;6305335;27;89029;-65
2022/12/22 16:55:50;;;;;;;3.53;2.83;;;23.30;71.20;;;;;;6303487;27;89967;-64
2022/12/22 16:58:53;;;;;;;3.03;2.80;;;23.40;71.20;;;;;;6304376;27;88963;-64
2022/12/22 17:01:58;;;;;;;2.75;2.50;;;23.40;71.20;;;;;;6292119;27;88964;-64
2022/12/22 17:05:01;;;;;;;3.17;2.80;;;23.40;72.00;;;;;;6292229;27;89344;-63
2022/12/22 17:08:05;;;;;;;3.95;3.00;;;23.40;71.10;;;;;;6301684;27;89118;-66
2022/12/22 17:11:09;;;;;;;4.13;3.05;;;23.40;71.30;;;;;;6302740;27;88845;-66
2022/12/22 17:14:21;;;;;;;7.60;3.40;;;23.40;71.50;;;;;;6304279;27;89103;-66
2022/12/22 17:17:25;;;;;;;4.97;3.40;;;23.40;77.30;;;;;;6306406;27;88668;-66
2022/12/22 17:20:28;;;;;;;5.35;2.80;;;23.40;72.80;;;;;;6301339;27;89153;-66
2022/12/22 17:23:34;;;;;;;3.97;3.00;;;23.40;72.20;;;;;;6298694;27;88957;-67
2022/12/22 17:26:37;;;;;;;4.85;2.97;;;23.50;72.10;;;;;;6305541;27;90033;-67
2022/12/22 17:29:40;;;;;;;5.82;2.88;;;23.50;72.00;;;;;;6304128;27;89398;-66
2022/12/22 17:32:43;;;;;;;5.50;3.03;;;23.50;72.00;;;;;;6305086;27;89014;-66
2022/12/22 17:35:46;;;;;;;4.22;2.92;;;23.50;72.00;;;;;;6308574;27;89050;-66
2022/12/22 17:38:48;;;;;;;6.65;3.00;;;23.50;72.00;;;;;;6306421;27;89156;-66
2022/12/22 17:41:50;;;;;;;5.55;2.80;;;23.50;72.00;;;;;;6308060;27;89176;-66
2022/12/22 17:44:53;;;;;;;4.65;2.78;;;23.50;72.00;;;;;;6308230;27;89055;-67
2022/12/22 17:47:56;;;;;;;4.47;3.05;;;23.50;72.00;;;;;;6306900;27;88296;-67
2022/12/22 17:51:00;;;;;;;5.00;2.85;;;23.50;72.00;;;;;;6304543;27;89023;-66
2022/12/22 17:54:02;;;;;;;3.75;2.80;;;23.60;72.00;;;;;;6307097;27;89103;-66
2022/12/22 17:57:06;;;;;;;3.53;2.78;;;23.60;72.00;;;;;;6306618;27;89866;-66
2022/12/22 18:00:17;;;;;;;4.25;2.70;;;23.60;72.00;;;;;;6305299;27;88183;-66
2022/12/22 18:03:20;;;;;;;5.43;2.70;;;23.60;72.00;;;;;;6304533;27;89100;-66
2022/12/22 18:06:26;;;;;;;3.45;2.60;;;23.60;72.00;;;;;;6308859;27;89038;-66
2022/12/22 18:09:28;;;;;;;3.55;2.50;;;23.60;72.00;;;;;;6308382;27;88962;-65
2022/12/22 18:12:30;;;;;;;6.85;2.60;;;23.60;72.00;;;;;;6293884;27;89221;-65
2022/12/22 18:15:32;;;;;;;5.93;2.90;;;23.60;71.90;;;;;;6306624;27;88976;-65
2022/12/22 18:18:36;;;;;;;6.10;2.60;;;23.60;71.90;;;;;;6307147;27;88389;-65
2022/12/22 18:21:38;;;;;;;3.33;2.40;;;23.60;72.00;;;;;;6301230;27;88122;-66
2022/12/22 18:24:40;;;;;;;4.50;2.30;;;23.60;72.00;;;;;;6301866;27;88942;-66
2022/12/22 18:27:42;;;;;;;3.83;2.50;;;23.60;71.70;;;;;;6307509;27;88955;-66
2022/12/22 18:30:44;;;;;;;4.90;2.67;;;23.60;71.50;;;;;;6303391;27;89125;-65
2022/12/22 18:33:48;;;;;;;3.80;2.40;;;23.60;71.30;;;;;;6305666;27;89118;-66
2022/12/22 18:36:50;;;;;;;2.80;2.40;;;23.60;71.20;;;;;;6304867;27;89104;-66
2022/12/22 18:39:52;;;;;;;3.30;2.20;;;23.60;71.00;;;;;;6304108;27;89189;-66
2022/12/22 18:42:55;;;;;;;3.65;2.30;;;23.60;71.80;;;;;;6303119;27;88005;-66
2022/12/22 18:45:57;;;;;;;4.20;2.40;;;23.60;70.80;;;;;;6292616;27;89110;-66
2022/12/22 18:49:01;;;;;;;5.30;2.63;;;23.60;70.70;;;;;;6299861;27;87938;-66
2022/12/22 18:52:03;;;;;;;3.50;2.70;;;23.60;70.60;;;;;;6293688;27;87992;-66
2022/12/22 18:55:10;;;;;;;3.92;2.70;;;23.70;70.50;;;;;;6293882;27;88980;-66
2022/12/22 18:58:14;;;;;;;3.92;2.70;;;23.60;70.30;;;;;;6288365;27;90268;-66
2022/12/22 19:01:20;;;;;;;3.30;2.47;;;23.60;70.30;;;;;;6305978;27;89026;-66
2022/12/22 19:04:24;;;;;;;3.30;2.53;;;23.60;70.20;;;;;;6293701;27;89214;-65
2022/12/22 19:07:26;;;;;;;3.50;2.63;;;23.60;70.10;;;;;;6293105;27;87974;-65
2022/12/22 19:10:35;;;;;;;3.92;2.78;;;23.60;70.00;;;;;;6296865;27;89148;-67
2022/12/22 19:13:40;;;;;;;5.63;2.47;;;23.60;70.10;;;;;;6300735;27;89017;-67
2022/12/22 19:16:42;;;;;;;3.58;2.42;;;23.60;70.30;;;;;;6299426;27;88996;-66
2022/12/22 19:19:46;;;;;;;4.45;2.50;;;23.60;70.60;;;;;;6299980;27;87352;-66
2022/12/22 19:22:49;;;;;;;4.00;2.70;;;23.60;70.80;;;;;;6293169;27;89173;-66
2022/12/22 19:25:54;;;;;;;4.28;2.60;;;23.60;71.00;;;;;;6302940;27;88834;-66
2022/12/22 19:28:59;;;;;;;3.10;2.47;;;23.70;71.10;;;;;;6305452;27;90072;-65
2022/12/22 19:32:02;;;;;;;3.10;2.40;;;23.60;71.40;;;;;;6289662;27;89045;-65
2022/12/22 19:35:12;;;;;;;5.20;2.70;;;23.60;71.50;;;;;;6294099;27;87975;-66
2022/12/22 19:38:20;;;;;;;5.60;2.72;;;23.60;71.40;;;;;;6283231;27;89307;-65